createdAt,value
2018-03-19T00:00:15.277Z,47.83
2018-03-19T00:02:43.596Z,47.69
2018-03-19T00:05:11.928Z,47.85
2018-03-19T00:07:40.270Z,48.24
2018-03-19T00:10:08.574Z,48.03
2018-03-19T00:12:36.898Z,48.30
2018-03-19T00:15:05.234Z,48.32
2018-03-19T00:17:34.330Z,48.12
2018-03-19T00:20:03.566Z,48.20
2018-03-19T00:22:31.882Z,48.29
2018-03-19T00:25:00.187Z,48.28
2018-03-19T00:27:29.263Z,48.53
2018-03-19T00:29:57.574Z,48.45
2018-03-19T00:32:26.676Z,48.40
2018-03-19T00:34:55.761Z,47.93
2018-03-19T00:37:24.062Z,48.05
2018-03-19T00:39:53.144Z,48.37
2018-03-19T00:42:21.480Z,48.58
2018-03-19T00:44:49.806Z,48.68
2018-03-19T00:47:18.126Z,48.62
2018-03-19T00:49:46.501Z,48.67
2018-03-19T00:52:14.796Z,48.61
2018-03-19T00:54:43.115Z,48.41
2018-03-19T00:57:11.425Z,48.88
2018-03-19T00:59:40.569Z,48.69
2018-03-19T01:02:08.934Z,48.77
2018-03-19T01:04:37.240Z,48.71
2018-03-19T01:07:05.554Z,48.47
2018-03-19T01:09:33.871Z,48.66
2018-03-19T01:12:02.955Z,48.79
2018-03-19T01:14:32.024Z,47.61
2018-03-19T01:17:00.334Z,48.03
2018-03-19T01:19:29.436Z,48.71
2018-03-19T01:21:58.594Z,48.83
2018-03-19T01:24:26.920Z,49.12
2018-03-19T01:26:55.992Z,48.81
2018-03-19T01:29:24.301Z,48.75
2018-03-19T01:31:53.518Z,48.76
2018-03-19T01:34:22.574Z,48.63
2018-03-19T01:36:50.891Z,49.09
2018-03-19T01:39:19.966Z,49.16
2018-03-19T01:41:48.283Z,49.67
2018-03-19T01:44:16.688Z,49.79
2018-03-19T01:46:45.003Z,50.22
2018-03-19T01:49:13.321Z,49.78
2018-03-19T01:51:42.410Z,49.48
2018-03-19T01:54:12.093Z,49.98
2018-03-19T01:56:40.413Z,50.08
2018-03-19T01:59:09.502Z,50.64
2018-03-19T02:01:37.816Z,50.39
2018-03-19T02:04:06.120Z,50.68
2018-03-19T02:06:34.433Z,50.66
2018-03-19T02:09:02.742Z,50.88
2018-03-19T02:11:31.819Z,50.84
2018-03-19T02:14:00.143Z,50.93
2018-03-19T02:16:28.465Z,50.54
2018-03-19T02:18:56.776Z,50.78
2018-03-19T02:21:25.080Z,50.40
2018-03-19T02:23:53.401Z,50.89
2018-03-19T02:26:21.788Z,50.85
2018-03-19T02:28:50.115Z,50.71
2018-03-19T02:31:19.201Z,51.19
2018-03-19T02:33:47.545Z,51.36
2018-03-19T02:36:15.852Z,50.66
2018-03-19T02:38:44.187Z,51.22
2018-03-19T02:41:12.496Z,50.92
2018-03-19T02:43:40.814Z,51.38
2018-03-19T02:46:09.139Z,51.98
2018-03-19T02:48:37.448Z,52.21
2018-03-19T02:51:05.773Z,52.56
2018-03-19T02:53:34.851Z,52.71
2018-03-19T02:56:03.168Z,52.85
2018-03-19T02:58:32.271Z,53.04
2018-03-19T03:01:00.593Z,53.61
2018-03-19T03:03:28.919Z,53.66
2018-03-19T03:05:58.052Z,53.87
2018-03-19T03:08:26.359Z,54.33
2018-03-19T03:10:54.653Z,54.21
2018-03-19T03:13:23.000Z,54.69
2018-03-19T03:15:51.300Z,55.07
2018-03-19T03:18:19.600Z,54.94
2018-03-19T03:20:47.910Z,55.39
2018-03-19T03:23:16.989Z,55.54
2018-03-19T03:25:45.309Z,55.63
2018-03-19T03:28:13.651Z,55.96
2018-03-19T03:30:41.978Z,56.18
2018-03-19T03:33:10.283Z,55.79
2018-03-19T03:35:38.584Z,56.26
2018-03-19T03:38:06.903Z,56.77
2018-03-19T03:40:35.985Z,56.94
2018-03-19T03:43:04.288Z,56.74
2018-03-19T03:45:33.391Z,56.43
2018-03-19T03:48:02.500Z,56.31
2018-03-19T03:50:31.598Z,55.48
2018-03-19T03:52:59.905Z,55.20
2018-03-19T03:55:28.280Z,55.41
2018-03-19T03:57:56.595Z,55.64
2018-03-19T04:00:24.916Z,55.79
2018-03-19T04:02:53.978Z,55.50
2018-03-19T04:05:22.292Z,55.38
2018-03-19T04:07:51.372Z,55.55
2018-03-19T04:10:19.693Z,55.40
2018-03-19T04:12:48.069Z,55.22
2018-03-19T04:15:16.370Z,55.25
2018-03-19T04:17:44.686Z,54.72
2018-03-19T04:20:12.995Z,54.29
2018-03-19T04:22:41.303Z,54.66
2018-03-19T04:25:09.625Z,54.97
2018-03-19T04:27:37.921Z,54.05
2018-03-19T04:30:06.247Z,53.74
2018-03-19T04:32:34.547Z,53.95
2018-03-19T04:35:02.931Z,54.02
2018-03-19T04:37:31.263Z,54.45
2018-03-19T04:39:59.573Z,54.43
2018-03-19T04:42:27.887Z,54.23
2018-03-19T04:44:56.199Z,54.78
2018-03-19T04:47:24.529Z,54.16
2018-03-19T04:49:52.827Z,54.79
2018-03-19T04:52:21.137Z,55.04
2018-03-19T04:54:49.495Z,55.38
2018-03-19T04:57:17.807Z,55.79
2018-03-19T04:59:46.108Z,55.94
2018-03-19T05:02:15.209Z,56.19
2018-03-19T05:04:44.291Z,56.28
2018-03-19T05:07:12.597Z,56.17
2018-03-19T05:09:41.673Z,56.85
2018-03-19T05:12:09.979Z,56.78
2018-03-19T05:14:39.049Z,57.21
2018-03-19T05:17:07.439Z,57.25
2018-03-19T05:19:35.751Z,57.63
2018-03-19T05:22:04.822Z,58.16
2018-03-19T05:24:33.143Z,57.73
2018-03-19T05:27:01.458Z,57.35
2018-03-19T05:29:29.754Z,57.97
2018-03-19T05:31:58.071Z,57.86
2018-03-19T05:34:27.141Z,57.96
2018-03-19T05:36:55.449Z,57.57
2018-03-19T05:39:24.527Z,57.75
2018-03-19T05:41:52.841Z,57.79
2018-03-19T05:44:21.923Z,57.86
2018-03-19T05:46:50.998Z,57.97
2018-03-19T05:49:19.317Z,57.96
2018-03-19T05:51:48.411Z,58.20
2018-03-19T05:54:17.545Z,58.41
2018-03-19T05:56:45.896Z,58.71
2018-03-19T05:59:14.206Z,58.40
2018-03-19T06:01:43.238Z,58.70
2018-03-19T06:04:11.559Z,58.41
2018-03-19T06:06:40.645Z,58.14
2018-03-19T06:09:08.943Z,57.77
2018-03-19T06:11:38.033Z,57.75
2018-03-19T06:14:07.091Z,57.62
2018-03-19T06:16:35.423Z,56.96
2018-03-19T06:19:03.747Z,57.38
2018-03-19T06:21:32.053Z,57.14
2018-03-19T06:24:00.388Z,56.97
2018-03-19T06:26:28.698Z,56.32
2018-03-19T06:28:57.789Z,56.20
2018-03-19T06:31:26.126Z,56.33
2018-03-19T06:33:55.231Z,56.27
2018-03-19T06:36:24.339Z,55.52
2018-03-19T06:38:52.721Z,55.69
2018-03-19T06:41:21.042Z,55.43
2018-03-19T06:43:49.401Z,54.88
2018-03-19T06:46:17.803Z,54.61
2018-03-19T06:48:46.145Z,53.71
2018-03-19T06:51:16.113Z,53.12
2018-03-19T06:53:44.547Z,53.26
2018-03-19T06:56:13.681Z,52.70
2018-03-19T06:58:41.992Z,53.14
2018-03-19T07:01:10.345Z,52.15
2018-03-19T07:03:38.689Z,51.65
2018-03-19T07:06:07.807Z,51.78
2018-03-19T07:08:36.211Z,51.58
2018-03-19T07:11:04.593Z,51.04
2018-03-19T07:13:32.930Z,50.83
2018-03-19T07:16:02.052Z,50.68
2018-03-19T07:18:30.391Z,49.88
2018-03-19T07:20:59.879Z,49.72
2018-03-19T07:23:28.239Z,49.82
2018-03-19T07:25:57.457Z,48.87
2018-03-19T07:28:25.882Z,48.82
2018-03-19T07:30:54.181Z,48.65
2018-03-19T07:33:22.493Z,47.31
2018-03-19T07:35:50.829Z,47.99
2018-03-19T07:38:19.132Z,46.83
2018-03-19T07:40:48.209Z,47.23
2018-03-19T07:43:16.540Z,47.28
2018-03-19T07:45:46.023Z,47.56
2018-03-19T07:48:15.157Z,46.79
2018-03-19T07:50:43.493Z,46.72
2018-03-19T07:53:11.926Z,46.14
2018-03-19T07:55:40.231Z,46.28
2018-03-19T07:58:08.568Z,45.99
2018-03-19T08:00:36.864Z,46.13
2018-03-19T08:03:05.157Z,45.85
2018-03-19T08:05:33.509Z,46.09
2018-03-19T08:08:02.739Z,45.51
2018-03-19T08:10:31.094Z,45.56
2018-03-19T08:13:00.211Z,45.57
2018-03-19T08:15:28.554Z,45.83
2018-03-19T08:17:57.629Z,45.56
2018-03-19T08:20:25.963Z,45.14
2018-03-19T08:22:55.183Z,44.91
2018-03-19T08:25:23.529Z,44.81
2018-03-19T08:27:52.611Z,45.39
2018-03-19T08:30:20.969Z,44.43
2018-03-19T08:32:49.322Z,44.85
2018-03-19T08:35:17.659Z,43.61
2018-03-19T08:37:45.983Z,43.03
2018-03-19T08:40:14.283Z,43.23
2018-03-19T08:42:42.608Z,43.54
2018-03-19T08:45:10.935Z,43.00
2018-03-19T08:47:39.249Z,42.94
2018-03-19T08:50:07.584Z,42.26
2018-03-19T08:52:36.665Z,42.08
2018-03-19T08:55:05.728Z,41.90
2018-03-19T08:57:34.075Z,42.45
2018-03-19T09:00:02.386Z,41.91
2018-03-19T09:02:30.695Z,41.92
2018-03-19T09:04:59.051Z,42.25
2018-03-19T09:07:27.369Z,42.36
2018-03-19T09:09:55.671Z,41.49
2018-03-19T09:12:24.747Z,41.45
2018-03-19T09:14:53.093Z,41.18
2018-03-19T09:17:21.437Z,40.32
2018-03-19T09:19:50.550Z,40.67
2018-03-19T09:22:18.899Z,40.74
2018-03-19T09:24:48.039Z,40.50
2018-03-19T09:27:16.355Z,39.93
2018-03-19T09:29:44.708Z,38.95
2018-03-19T09:32:13.024Z,39.47
2018-03-19T09:34:41.361Z,39.22
2018-03-19T09:37:09.676Z,39.41
2018-03-19T09:39:38.010Z,38.71
2018-03-19T09:42:07.115Z,38.04
2018-03-19T09:44:36.215Z,38.60
2018-03-19T09:47:05.308Z,38.08
2018-03-19T09:49:34.387Z,37.20
2018-03-19T09:52:02.680Z,38.04
2018-03-19T09:54:31.003Z,37.54
2018-03-19T09:56:59.324Z,37.77
2018-03-19T09:59:27.667Z,37.56
2018-03-19T10:01:55.990Z,37.08
2018-03-19T10:04:24.347Z,37.10
2018-03-19T10:06:52.707Z,36.56
2018-03-19T10:09:21.727Z,36.30
2018-03-19T10:11:50.073Z,36.72
2018-03-19T10:14:19.169Z,36.34
2018-03-19T10:16:48.268Z,35.54
2018-03-19T10:19:17.394Z,35.44
2018-03-19T10:21:45.750Z,35.16
2018-03-19T10:24:14.816Z,35.24
2018-03-19T10:26:43.122Z,35.32
2018-03-19T10:29:11.434Z,35.08
2018-03-19T10:31:39.737Z,34.38
2018-03-19T10:34:08.073Z,34.67
2018-03-19T10:36:36.392Z,34.46
2018-03-19T10:39:04.729Z,34.68
2018-03-19T10:41:33.794Z,34.44
2018-03-19T10:44:02.119Z,34.82
2018-03-19T10:46:31.256Z,34.08
2018-03-19T10:48:59.572Z,34.46
2018-03-19T10:51:27.882Z,33.35
2018-03-19T10:53:56.975Z,33.28
2018-03-19T10:56:25.293Z,33.22
2018-03-19T10:58:53.878Z,33.96
2018-03-19T11:01:27.607Z,34.49
2018-03-19T11:04:01.733Z,33.42
2018-03-19T11:06:35.606Z,33.46
2018-03-19T11:09:10.823Z,33.06
2018-03-19T11:11:39.911Z,33.24
2018-03-19T11:14:09.023Z,32.44
2018-03-19T11:16:38.085Z,32.88
2018-03-19T11:19:06.403Z,32.22
2018-03-19T11:21:35.503Z,32.07
2018-03-19T11:24:04.636Z,31.06
2018-03-19T11:26:32.963Z,30.78
2018-03-19T11:29:01.426Z,30.83
2018-03-19T11:31:29.734Z,31.72
2018-03-19T11:33:58.817Z,30.93
2018-03-19T11:36:27.157Z,31.41
2018-03-19T11:38:55.459Z,31.49
2018-03-19T11:41:23.814Z,30.52
2018-03-19T11:43:52.124Z,30.00
2018-03-19T11:46:20.439Z,29.94
2018-03-19T11:48:48.741Z,29.54
2018-03-19T11:51:17.821Z,29.60
2018-03-19T11:53:46.150Z,29.02
2018-03-19T11:56:14.473Z,29.18
2018-03-19T11:58:42.804Z,27.87
2018-03-19T12:01:11.896Z,27.11
2018-03-19T12:03:40.971Z,26.66
2018-03-19T12:06:09.307Z,26.71
2018-03-19T12:08:37.713Z,26.90
2018-03-19T12:11:06.016Z,26.69
2018-03-19T12:13:34.312Z,25.09
2018-03-19T12:16:02.639Z,25.21
2018-03-19T12:18:30.997Z,24.24
2018-03-19T12:21:00.064Z,23.89
2018-03-19T12:23:28.375Z,23.12
2018-03-19T12:25:57.451Z,22.31
2018-03-19T12:28:25.768Z,20.82
2018-03-19T12:30:54.083Z,20.86
2018-03-19T12:33:22.403Z,20.70
2018-03-19T12:35:50.730Z,19.63
2018-03-19T12:38:19.171Z,18.90
2018-03-19T12:40:48.270Z,18.80
2018-03-19T12:43:17.407Z,18.51
2018-03-19T12:45:46.082Z,18.83
2018-03-19T12:48:15.150Z,17.79
2018-03-19T12:50:43.552Z,17.14
2018-03-19T12:53:11.864Z,16.94
2018-03-19T12:55:40.194Z,16.54
2018-03-19T12:58:08.490Z,16.44
2018-03-19T13:00:36.851Z,16.15
2018-03-19T13:03:05.174Z,15.56
2018-03-19T13:05:34.295Z,15.42
2018-03-19T13:08:02.680Z,15.34
2018-03-19T13:10:31.008Z,15.05
2018-03-19T13:12:59.307Z,14.60
2018-03-19T13:15:28.392Z,14.79
2018-03-19T13:17:56.698Z,13.78
2018-03-19T13:20:25.784Z,13.40
2018-03-19T13:22:54.133Z,14.09
2018-03-19T13:25:22.446Z,14.25
2018-03-19T13:27:50.749Z,13.82
2018-03-19T13:30:19.821Z,13.59
2018-03-19T13:32:48.207Z,13.12
2018-03-19T13:35:16.650Z,13.03
2018-03-19T13:37:44.972Z,12.97
2018-03-19T13:40:13.278Z,12.74
2018-03-19T13:42:42.415Z,12.61
2018-03-19T13:45:10.755Z,12.85
2018-03-19T13:47:39.911Z,12.77
2018-03-19T13:50:08.229Z,12.32
2018-03-19T13:52:36.637Z,12.52
2018-03-19T13:55:04.947Z,12.00
2018-03-19T13:57:33.318Z,11.91
2018-03-19T14:00:01.670Z,11.64
2018-03-19T14:02:30.085Z,11.72
2018-03-19T14:04:58.760Z,11.47
2018-03-19T14:07:27.095Z,11.41
2018-03-19T14:09:55.412Z,11.75
2018-03-19T14:12:23.730Z,11.65
2018-03-19T14:14:52.034Z,11.41
2018-03-19T14:17:20.381Z,11.49
2018-03-19T14:19:48.712Z,11.35
2018-03-19T14:22:17.034Z,11.29
2018-03-19T14:24:45.344Z,11.04
2018-03-19T14:27:13.680Z,11.04
2018-03-19T14:29:42.770Z,10.91
2018-03-19T14:32:12.103Z,11.11
2018-03-19T14:34:40.434Z,11.41
2018-03-19T14:37:08.765Z,11.37
2018-03-19T14:39:37.879Z,11.41
2018-03-19T14:42:06.192Z,10.97
2018-03-19T14:44:34.498Z,10.99
2018-03-19T14:47:02.807Z,11.10
2018-03-19T14:49:31.908Z,10.82
2018-03-19T14:52:00.984Z,11.35
2018-03-19T14:54:29.317Z,11.25
2018-03-19T14:56:58.047Z,11.01
2018-03-19T14:59:26.333Z,11.47
2018-03-19T15:01:54.696Z,11.60
2018-03-19T15:04:23.128Z,11.93
2018-03-19T15:06:51.460Z,11.50
2018-03-19T15:09:19.779Z,11.22
2018-03-19T15:11:48.882Z,11.60
2018-03-19T15:14:17.970Z,11.32
2018-03-19T15:16:46.276Z,11.02
2018-03-19T15:19:15.339Z,11.27
2018-03-19T15:21:43.651Z,11.39
2018-03-19T15:24:13.354Z,11.26
2018-03-19T15:26:41.696Z,11.30
2018-03-19T15:29:10.029Z,11.79
2018-03-19T15:31:38.368Z,11.64
2018-03-19T15:34:06.663Z,11.23
2018-03-19T15:36:35.003Z,11.29
2018-03-19T15:39:03.369Z,11.02
2018-03-19T15:41:31.692Z,10.56
2018-03-19T15:44:00.034Z,10.95
2018-03-19T15:46:28.437Z,11.19
2018-03-19T15:48:56.748Z,11.74
2018-03-19T15:51:25.096Z,11.98
2018-03-19T15:53:53.416Z,12.19
2018-03-19T15:56:22.068Z,11.87
2018-03-19T15:58:50.388Z,11.44
2018-03-19T16:01:18.690Z,11.79
2018-03-19T16:03:47.008Z,11.93
2018-03-19T16:06:15.362Z,12.42
2018-03-19T16:08:44.474Z,12.70
2018-03-19T16:11:14.142Z,13.37
2018-03-19T16:13:42.451Z,14.33
2018-03-19T16:16:11.630Z,14.32
2018-03-19T16:18:39.942Z,14.68
2018-03-19T16:21:08.277Z,14.90
2018-03-19T16:23:36.588Z,14.83
2018-03-19T16:26:05.001Z,15.21
2018-03-19T16:28:34.126Z,15.20
2018-03-19T16:31:02.470Z,15.57
2018-03-19T16:33:30.784Z,15.82
2018-03-19T16:35:59.362Z,15.81
2018-03-19T16:38:27.684Z,16.06
2018-03-19T16:40:55.984Z,16.39
2018-03-19T16:43:25.068Z,16.89
2018-03-19T16:45:53.391Z,16.89
2018-03-19T16:48:22.502Z,16.73
2018-03-19T16:50:51.616Z,16.55
2018-03-19T16:53:19.952Z,16.59
2018-03-19T16:55:48.281Z,16.95
2018-03-19T16:58:16.607Z,16.95
2018-03-19T17:00:44.959Z,16.96
2018-03-19T17:03:13.562Z,17.03
2018-03-19T17:05:41.870Z,17.16
2018-03-19T17:10:45.354Z,17.41
2018-03-19T17:13:13.680Z,17.46
2018-03-19T17:15:42.012Z,18.38
2018-03-19T17:18:10.402Z,19.38
2018-03-19T17:20:39.786Z,20.54
2018-03-19T17:23:08.121Z,21.82
2018-03-19T17:25:36.442Z,23.34
2018-03-19T17:28:05.582Z,24.57
2018-03-19T17:30:33.895Z,26.39
2018-03-19T17:33:02.226Z,27.72
2018-03-19T17:35:30.546Z,28.82
2018-03-19T17:37:58.868Z,30.42
2018-03-19T17:40:28.178Z,31.38
2018-03-19T17:42:57.400Z,32.31
2018-03-19T17:45:25.701Z,33.33
2018-03-19T17:47:54.030Z,34.01
2018-03-19T17:50:22.380Z,34.97
2018-03-19T17:52:51.139Z,36.05
2018-03-19T17:55:19.522Z,36.97
2018-03-19T17:57:47.927Z,38.10
2018-03-19T18:00:16.275Z,38.17
2018-03-19T18:02:44.606Z,39.49
2018-03-19T18:05:12.962Z,39.81
2018-03-19T18:07:41.282Z,40.42
2018-03-19T18:10:09.638Z,41.21
2018-03-19T18:12:37.946Z,41.70
2018-03-19T18:15:06.301Z,42.22
2018-03-19T18:17:34.618Z,42.21
2018-03-19T18:20:02.944Z,42.66
2018-03-19T18:22:31.281Z,43.04
2018-03-19T18:25:00.436Z,43.46
2018-03-19T18:27:28.827Z,43.93
2018-03-19T18:29:57.159Z,44.18
2018-03-19T18:32:26.288Z,44.91
2018-03-19T18:34:54.628Z,45.31
2018-03-19T18:37:22.984Z,46.65
2018-03-19T18:39:51.824Z,47.05
2018-03-19T18:42:20.780Z,47.55
2018-03-19T18:44:49.109Z,47.56
2018-03-19T18:47:18.343Z,47.67
2018-03-19T18:49:46.692Z,47.96
2018-03-19T18:52:15.820Z,48.24
2018-03-19T18:54:44.173Z,48.74
2018-03-19T18:57:14.221Z,49.78
2018-03-19T18:59:42.596Z,50.11
2018-03-19T19:02:10.990Z,49.80
2018-03-19T19:04:39.359Z,50.34
2018-03-19T19:07:07.698Z,51.06
2018-03-19T19:09:36.050Z,51.25
2018-03-19T19:12:04.435Z,51.62
2018-03-19T19:14:32.777Z,52.01
2018-03-19T19:17:01.884Z,52.24
2018-03-19T19:19:30.249Z,52.41
2018-03-19T19:21:58.585Z,52.91
2018-03-19T19:24:26.939Z,52.94
2018-03-19T19:26:55.304Z,53.25
2018-03-19T19:29:23.803Z,53.81
2018-03-19T19:31:52.910Z,54.15
2018-03-19T19:34:21.271Z,54.08
2018-03-19T19:36:50.456Z,55.17
2018-03-19T19:39:18.799Z,55.16
2018-03-19T19:41:47.145Z,55.34
2018-03-19T19:44:16.304Z,55.35
2018-03-19T19:46:44.678Z,55.74
2018-03-19T19:49:13.049Z,55.78
2018-03-19T19:51:41.432Z,55.69
2018-03-19T19:54:09.824Z,55.71
2018-03-19T19:56:38.331Z,56.04
2018-03-19T19:59:06.683Z,55.65
2018-03-19T20:01:35.068Z,56.17
2018-03-19T20:04:03.411Z,56.16
2018-03-19T20:06:32.601Z,56.33
2018-03-19T20:09:02.061Z,58.09
2018-03-19T20:11:30.522Z,57.83
2018-03-19T20:13:58.912Z,58.04
2018-03-19T20:16:27.292Z,57.72
2018-03-19T20:18:55.662Z,57.62
2018-03-19T20:21:24.821Z,57.78
2018-03-19T20:23:53.232Z,57.55
2018-03-19T20:26:21.581Z,57.77
2018-03-19T20:28:49.972Z,57.93
2018-03-19T20:31:18.318Z,58.07
2018-03-19T20:33:46.681Z,58.05
2018-03-19T20:36:15.807Z,58.35
2018-03-19T20:38:44.361Z,58.13
2018-03-19T20:41:13.550Z,58.26
2018-03-19T20:43:41.910Z,58.82
2018-03-19T20:46:10.585Z,58.85
2018-03-19T20:48:38.980Z,58.75
2018-03-19T20:51:08.193Z,58.72
2018-03-19T20:53:36.552Z,58.74
2018-03-19T20:56:04.967Z,58.16
2018-03-19T20:58:33.387Z,57.92
2018-03-19T21:01:02.518Z,57.88
2018-03-19T21:03:30.880Z,58.39
2018-03-19T21:05:59.267Z,58.15
2018-03-19T21:08:28.176Z,58.33
2018-03-19T21:10:56.565Z,58.45
2018-03-19T21:13:24.921Z,58.57
2018-03-19T21:15:53.302Z,58.43
2018-03-19T21:18:21.656Z,58.45
2018-03-19T21:20:50.051Z,58.56
2018-03-19T21:23:19.163Z,58.47
2018-03-19T21:25:48.280Z,58.49
2018-03-19T21:28:16.599Z,58.21
2018-03-19T21:30:44.985Z,57.95
2018-03-19T21:33:13.335Z,57.88
2018-03-19T21:35:41.777Z,57.44
2018-03-19T21:38:10.191Z,57.27
2018-03-19T21:40:38.491Z,56.97
2018-03-19T21:43:06.912Z,56.77
2018-03-19T21:45:35.208Z,56.83
2018-03-19T21:48:03.524Z,56.55
2018-03-19T21:50:31.835Z,56.23
2018-03-19T21:53:00.143Z,56.11
2018-03-19T21:55:28.516Z,56.06
2018-03-19T21:57:57.561Z,56.16
2018-03-19T22:00:26.636Z,55.98
2018-03-19T22:02:54.945Z,55.70
2018-03-19T22:05:24.022Z,55.48
2018-03-19T22:07:52.334Z,55.64
2018-03-19T22:10:20.677Z,55.72
2018-03-19T22:12:49.018Z,55.74
2018-03-19T22:15:17.362Z,55.73
2018-03-19T22:17:46.531Z,55.82
2018-03-19T22:20:14.873Z,56.16
2018-03-19T22:22:43.197Z,56.47
2018-03-19T22:25:11.544Z,56.69
2018-03-19T22:27:39.894Z,57.09
2018-03-19T22:30:08.966Z,57.19
2018-03-19T22:32:37.278Z,57.38
2018-03-19T22:35:06.376Z,57.34
2018-03-19T22:37:35.497Z,57.33
2018-03-19T22:40:03.880Z,57.47
2018-03-19T22:42:32.170Z,57.61
2018-03-19T22:45:00.542Z,57.68
2018-03-19T22:47:28.890Z,57.83
2018-03-19T22:49:57.215Z,58.00
2018-03-19T22:52:25.547Z,58.10
2018-03-19T22:54:53.898Z,58.22
2018-03-19T22:57:23.005Z,58.23
2018-03-19T22:59:51.311Z,58.40
2018-03-19T23:02:19.626Z,58.50
2018-03-19T23:18:29.293Z,58.71
2018-03-19T23:20:57.661Z,59.06
2018-03-19T23:23:26.044Z,59.53
2018-03-19T23:25:54.361Z,59.82
2018-03-19T23:28:22.737Z,60.35
2018-03-19T23:30:51.053Z,60.68
2018-03-19T23:33:19.363Z,61.59
2018-03-19T23:35:48.480Z,62.25
2018-03-19T23:38:16.865Z,62.41
2018-03-19T23:40:45.225Z,62.50
2018-03-19T23:43:13.569Z,62.63
2018-03-19T23:45:42.913Z,62.88
2018-03-19T23:48:11.260Z,63.03
2018-03-19T23:50:40.355Z,63.26
2018-03-19T23:53:09.445Z,63.41
2018-03-19T23:55:37.745Z,63.52
2018-03-19T23:58:06.821Z,63.62
